sensor_id;sensor_type;location;lat;lon;timestamp;P1;durP1;ratioP1;P2;durP2;ratioP2
64242;SDS011;50573;51.512;5.386;2023-04-25T00:05:07;24.55;;;7.88;;
64242;SDS011;50573;51.512;5.386;2023-04-25T00:15:12;18.42;;;5.75;;
64242;SDS011;50573;51.512;5.386;2023-04-25T00:25:15;26.42;;;7.88;;
64242;SDS011;50573;51.512;5.386;2023-04-25T00:35:19;27.50;;;6.82;;
64242;SDS011;50573;51.512;5.386;2023-04-25T00:45:23;22.57;;;6.07;;
64242;SDS011;50573;51.512;5.386;2023-04-25T00:55:32;33.92;;;9.20;;
64242;SDS011;50573;51.512;5.386;2023-04-25T01:05:37;21.85;;;8.23;;
64242;SDS011;50573;51.512;5.386;2023-04-25T01:15:43;29.43;;;8.90;;
64242;SDS011;50573;51.512;5.386;2023-04-25T01:25:48;40.17;;;8.93;;
64242;SDS011;50573;51.512;5.386;2023-04-25T01:35:51;28.15;;;9.27;;
64242;SDS011;50573;51.512;5.386;2023-04-25T01:45:56;28.33;;;9.90;;
64242;SDS011;50573;51.512;5.386;2023-04-25T01:55:59;27.17;;;9.07;;
64242;SDS011;50573;51.512;5.386;2023-04-25T02:06:09;25.48;;;9.95;;
64242;SDS011;50573;51.512;5.386;2023-04-25T02:16:16;29.27;;;9.73;;
64242;SDS011;50573;51.512;5.386;2023-04-25T02:26:21;25.52;;;9.18;;
64242;SDS011;50573;51.512;5.386;2023-04-25T02:36:25;42.83;;;11.05;;
64242;SDS011;50573;51.512;5.386;2023-04-25T02:46:30;35.05;;;10.30;;
64242;SDS011;50573;51.512;5.386;2023-04-25T02:56:38;34.83;;;9.90;;
64242;SDS011;50573;51.512;5.386;2023-04-25T03:06:48;34.00;;;10.32;;
64242;SDS011;50573;51.512;5.386;2023-04-25T03:16:54;33.30;;;11.73;;
64242;SDS011;50573;51.512;5.386;2023-04-25T03:26:59;27.83;;;9.85;;
64242;SDS011;50573;51.512;5.386;2023-04-25T03:37:02;30.90;;;9.00;;
64242;SDS011;50573;51.512;5.386;2023-04-25T03:47:11;31.63;;;8.45;;
64242;SDS011;50573;51.512;5.386;2023-04-25T03:57:14;23.50;;;8.23;;
64242;SDS011;50573;51.512;5.386;2023-04-25T04:07:19;31.85;;;9.23;;
64242;SDS011;50573;51.512;5.386;2023-04-25T04:17:26;26.48;;;8.25;;
64242;SDS011;50573;51.512;5.386;2023-04-25T04:27:32;38.90;;;8.18;;
64242;SDS011;50573;51.512;5.386;2023-04-25T04:38:11;29.25;;;9.45;;
64242;SDS011;50573;51.512;5.386;2023-04-25T04:48:17;35.95;;;8.73;;
64242;SDS011;50573;51.512;5.386;2023-04-25T04:58:41;29.90;;;8.00;;
64242;SDS011;50573;51.512;5.386;2023-04-25T05:08:59;35.42;;;10.20;;
64242;SDS011;50573;51.512;5.386;2023-04-25T05:19:17;26.85;;;8.55;;
64242;SDS011;50573;51.512;5.386;2023-04-25T05:29:38;25.67;;;9.32;;
64242;SDS011;50573;51.512;5.386;2023-04-25T05:40:01;31.47;;;9.57;;
64242;SDS011;50573;51.512;5.386;2023-04-25T05:50:28;33.70;;;9.02;;
64242;SDS011;50573;51.512;5.386;2023-04-25T06:00:47;28.70;;;8.95;;
64242;SDS011;50573;51.512;5.386;2023-04-25T06:10:53;35.20;;;10.35;;
64242;SDS011;50573;51.512;5.386;2023-04-25T06:20:57;20.60;;;7.20;;
64242;SDS011;50573;51.512;5.386;2023-04-25T06:31:02;18.48;;;5.88;;
64242;SDS011;50573;51.512;5.386;2023-04-25T06:41:05;13.05;;;3.90;;
64242;SDS011;50573;51.512;5.386;2023-04-25T07:01:16;16.10;;;3.75;;
64242;SDS011;50573;51.512;5.386;2023-04-25T07:11:21;15.80;;;3.65;;
64242;SDS011;50573;51.512;5.386;2023-04-25T07:21:24;16.50;;;4.17;;
64242;SDS011;50573;51.512;5.386;2023-04-25T07:31:30;18.97;;;3.03;;
64242;SDS011;50573;51.512;5.386;2023-04-25T07:41:33;14.18;;;2.70;;
64242;SDS011;50573;51.512;5.386;2023-04-25T07:51:38;8.80;;;2.75;;
64242;SDS011;50573;51.512;5.386;2023-04-25T08:01:45;14.85;;;2.85;;
64242;SDS011;50573;51.512;5.386;2023-04-25T08:11:50;12.15;;;2.28;;
64242;SDS011;50573;51.512;5.386;2023-04-25T08:21:59;19.67;;;3.85;;
64242;SDS011;50573;51.512;5.386;2023-04-25T08:32:12;9.98;;;2.55;;
64242;SDS011;50573;51.512;5.386;2023-04-25T08:42:25;14.10;;;3.03;;
64242;SDS011;50573;51.512;5.386;2023-04-25T08:52:35;16.83;;;3.33;;
64242;SDS011;50573;51.512;5.386;2023-04-25T09:02:41;11.18;;;2.67;;
64242;SDS011;50573;51.512;5.386;2023-04-25T09:12:59;15.40;;;2.85;;
64242;SDS011;50573;51.512;5.386;2023-04-25T09:23:09;14.73;;;3.35;;
64242;SDS011;50573;51.512;5.386;2023-04-25T09:33:14;10.27;;;2.40;;
64242;SDS011;50573;51.512;5.386;2023-04-25T09:43:22;12.60;;;2.22;;
64242;SDS011;50573;51.512;5.386;2023-04-25T09:53:27;15.02;;;2.55;;
64242;SDS011;50573;51.512;5.386;2023-04-25T10:03:42;11.18;;;2.20;;
64242;SDS011;50573;51.512;5.386;2023-04-25T10:14:07;6.05;;;1.90;;
64242;SDS011;50573;51.512;5.386;2023-04-25T10:24:11;11.60;;;2.25;;
64242;SDS011;50573;51.512;5.386;2023-04-25T10:34:16;9.50;;;1.55;;
64242;SDS011;50573;51.512;5.386;2023-04-25T10:44:20;10.48;;;2.50;;
64242;SDS011;50573;51.512;5.386;2023-04-25T10:54:24;7.93;;;1.95;;
64242;SDS011;50573;51.512;5.386;2023-04-25T11:04:29;11.05;;;2.13;;
64242;SDS011;50573;51.512;5.386;2023-04-25T11:14:35;11.57;;;2.30;;
64242;SDS011;50573;51.512;5.386;2023-04-25T11:34:43;8.20;;;1.80;;
64242;SDS011;50573;51.512;5.386;2023-04-25T11:44:47;6.82;;;2.25;;
64242;SDS011;50573;51.512;5.386;2023-04-25T11:54:52;12.35;;;2.00;;
64242;SDS011;50573;51.512;5.386;2023-04-25T12:04:58;9.57;;;1.80;;
64242;SDS011;50573;51.512;5.386;2023-04-25T12:15:24;8.90;;;1.58;;
64242;SDS011;50573;51.512;5.386;2023-04-25T12:25:34;3.55;;;0.90;;
64242;SDS011;50573;51.512;5.386;2023-04-25T12:35:39;3.97;;;1.40;;
64242;SDS011;50573;51.512;5.386;2023-04-25T12:45:44;5.47;;;1.38;;
64242;SDS011;50573;51.512;5.386;2023-04-25T12:55:49;3.00;;;1.42;;
64242;SDS011;50573;51.512;5.386;2023-04-25T13:05:53;7.93;;;1.88;;
64242;SDS011;50573;51.512;5.386;2023-04-25T13:15:58;4.13;;;1.35;;
64242;SDS011;50573;51.512;5.386;2023-04-25T13:26:01;7.55;;;1.70;;
64242;SDS011;50573;51.512;5.386;2023-04-25T13:36:06;8.90;;;1.83;;
64242;SDS011;50573;51.512;5.386;2023-04-25T13:56:35;10.95;;;1.75;;
64242;SDS011;50573;51.512;5.386;2023-04-25T14:06:38;5.60;;;1.63;;
64242;SDS011;50573;51.512;5.386;2023-04-25T14:16:44;10.73;;;1.93;;
64242;SDS011;50573;51.512;5.386;2023-04-25T14:26:47;13.75;;;2.13;;
64242;SDS011;50573;51.512;5.386;2023-04-25T14:36:52;8.23;;;2.13;;
64242;SDS011;50573;51.512;5.386;2023-04-25T14:46:56;4.30;;;1.60;;
64242;SDS011;50573;51.512;5.386;2023-04-25T14:57:01;11.17;;;2.30;;
64242;SDS011;50573;51.512;5.386;2023-04-25T15:07:05;9.10;;;2.40;;
64242;SDS011;50573;51.512;5.386;2023-04-25T15:17:10;8.60;;;1.70;;
64242;SDS011;50573;51.512;5.386;2023-04-25T15:27:16;8.00;;;1.83;;
64242;SDS011;50573;51.512;5.386;2023-04-25T15:37:20;6.22;;;1.80;;
64242;SDS011;50573;51.512;5.386;2023-04-25T15:47:23;9.43;;;2.25;;
64242;SDS011;50573;51.512;5.386;2023-04-25T15:57:28;8.73;;;1.98;;
64242;SDS011;50573;51.512;5.386;2023-04-25T16:07:32;12.63;;;2.22;;
64242;SDS011;50573;51.512;5.386;2023-04-25T16:17:36;11.25;;;1.70;;
64242;SDS011;50573;51.512;5.386;2023-04-25T16:27:39;9.63;;;2.33;;
64242;SDS011;50573;51.512;5.386;2023-04-25T16:37:44;10.88;;;1.88;;
64242;SDS011;50573;51.512;5.386;2023-04-25T16:47:47;7.93;;;2.50;;
64242;SDS011;50573;51.512;5.386;2023-04-25T16:57:51;5.85;;;1.60;;
64242;SDS011;50573;51.512;5.386;2023-04-25T17:17:59;6.97;;;2.05;;
64242;SDS011;50573;51.512;5.386;2023-04-25T17:38:08;12.07;;;2.10;;
64242;SDS011;50573;51.512;5.386;2023-04-25T17:48:12;5.65;;;1.83;;
64242;SDS011;50573;51.512;5.386;2023-04-25T17:58:17;8.00;;;2.00;;
64242;SDS011;50573;51.512;5.386;2023-04-25T18:08:20;10.87;;;2.53;;
64242;SDS011;50573;51.512;5.386;2023-04-25T18:18:25;12.07;;;2.83;;
64242;SDS011;50573;51.512;5.386;2023-04-25T18:28:33;11.70;;;2.17;;
64242;SDS011;50573;51.512;5.386;2023-04-25T18:38:38;7.93;;;2.20;;
64242;SDS011;50573;51.512;5.386;2023-04-25T18:48:41;5.30;;;1.53;;
64242;SDS011;50573;51.512;5.386;2023-04-25T18:58:45;10.75;;;2.25;;
64242;SDS011;50573;51.512;5.386;2023-04-25T19:08:49;7.07;;;2.20;;
64242;SDS011;50573;51.512;5.386;2023-04-25T19:18:54;13.43;;;2.57;;
64242;SDS011;50573;51.512;5.386;2023-04-25T19:29:02;9.70;;;3.00;;
64242;SDS011;50573;51.512;5.386;2023-04-25T19:39:08;16.55;;;2.90;;
64242;SDS011;50573;51.512;5.386;2023-04-25T19:49:11;9.53;;;2.50;;
64242;SDS011;50573;51.512;5.386;2023-04-25T19:59:15;10.75;;;2.83;;
64242;SDS011;50573;51.512;5.386;2023-04-25T20:09:19;12.30;;;3.20;;
64242;SDS011;50573;51.512;5.386;2023-04-25T20:19:23;18.45;;;5.90;;
64242;SDS011;50573;51.512;5.386;2023-04-25T20:29:26;12.90;;;5.13;;
64242;SDS011;50573;51.512;5.386;2023-04-25T20:39:31;10.23;;;3.45;;
64242;SDS011;50573;51.512;5.386;2023-04-25T20:49:35;14.43;;;3.83;;
64242;SDS011;50573;51.512;5.386;2023-04-25T20:59:39;16.60;;;4.43;;
64242;SDS011;50573;51.512;5.386;2023-04-25T21:09:42;13.23;;;4.33;;
64242;SDS011;50573;51.512;5.386;2023-04-25T21:19:47;16.40;;;5.50;;
64242;SDS011;50573;51.512;5.386;2023-04-25T21:29:50;12.57;;;3.87;;
64242;SDS011;50573;51.512;5.386;2023-04-25T21:39:55;20.20;;;4.60;;
64242;SDS011;50573;51.512;5.386;2023-04-25T21:49:58;9.97;;;3.20;;
64242;SDS011;50573;51.512;5.386;2023-04-25T22:00:03;14.05;;;5.25;;
64242;SDS011;50573;51.512;5.386;2023-04-25T22:10:21;17.42;;;5.20;;
64242;SDS011;50573;51.512;5.386;2023-04-25T22:20:26;19.60;;;6.07;;
64242;SDS011;50573;51.512;5.386;2023-04-25T22:30:29;25.13;;;6.87;;
64242;SDS011;50573;51.512;5.386;2023-04-25T22:40:33;20.85;;;6.10;;
64242;SDS011;50573;51.512;5.386;2023-04-25T22:50:37;17.98;;;6.22;;
64242;SDS011;50573;51.512;5.386;2023-04-25T23:00:42;13.27;;;5.47;;
64242;SDS011;50573;51.512;5.386;2023-04-25T23:10:45;17.90;;;5.83;;
64242;SDS011;50573;51.512;5.386;2023-04-25T23:20:50;36.45;;;9.30;;
64242;SDS011;50573;51.512;5.386;2023-04-25T23:41:02;22.08;;;8.90;;
64242;SDS011;50573;51.512;5.386;2023-04-25T23:51:05;23.20;;;6.17;;
